sensor_id;sensor_type;location;lat;lon;timestamp;P1;durP1;ratioP1;P2;durP2;ratioP2
64560;SDS011;50960;46.838;16.838;2023-11-19T00:00:27;11.02;;;10.02;;
64560;SDS011;50960;46.838;16.838;2023-11-19T00:02:53;11.23;;;10.23;;
64560;SDS011;50960;46.838;16.838;2023-11-19T00:05:19;11.18;;;10.07;;
64560;SDS011;50960;46.838;16.838;2023-11-19T00:07:45;11.52;;;10.43;;
64560;SDS011;50960;46.838;16.838;2023-11-19T00:10:13;13.02;;;11.73;;
64560;SDS011;50960;46.838;16.838;2023-11-19T00:12:43;16.30;;;14.70;;
64560;SDS011;50960;46.838;16.838;2023-11-19T00:15:20;13.02;;;11.82;;
64560;SDS011;50960;46.838;16.838;2023-11-19T00:17:47;13.25;;;11.93;;
64560;SDS011;50960;46.838;16.838;2023-11-19T00:20:14;13.85;;;12.43;;
64560;SDS011;50960;46.838;16.838;2023-11-19T00:22:42;13.48;;;12.07;;
64560;SDS011;50960;46.838;16.838;2023-11-19T00:25:09;12.57;;;11.27;;
64560;SDS011;50960;46.838;16.838;2023-11-19T00:27:35;11.93;;;10.82;;
64560;SDS011;50960;46.838;16.838;2023-11-19T00:30:05;12.05;;;10.90;;
64560;SDS011;50960;46.838;16.838;2023-11-19T00:32:32;10.73;;;9.65;;
64560;SDS011;50960;46.838;16.838;2023-11-19T00:34:58;9.98;;;9.07;;
64560;SDS011;50960;46.838;16.838;2023-11-19T00:37:25;9.38;;;8.57;;
64560;SDS011;50960;46.838;16.838;2023-11-19T00:39:52;9.45;;;8.55;;
64560;SDS011;50960;46.838;16.838;2023-11-19T00:42:18;10.32;;;9.43;;
64560;SDS011;50960;46.838;16.838;2023-11-19T00:44:44;10.30;;;9.30;;
64560;SDS011;50960;46.838;16.838;2023-11-19T00:47:11;11.57;;;10.48;;
64560;SDS011;50960;46.838;16.838;2023-11-19T00:49:37;11.15;;;10.15;;
64560;SDS011;50960;46.838;16.838;2023-11-19T00:52:03;11.32;;;10.23;;
64560;SDS011;50960;46.838;16.838;2023-11-19T00:54:30;11.25;;;10.15;;
64560;SDS011;50960;46.838;16.838;2023-11-19T00:56:56;10.43;;;9.52;;
64560;SDS011;50960;46.838;16.838;2023-11-19T00:59:23;10.88;;;9.98;;
64560;SDS011;50960;46.838;16.838;2023-11-19T01:01:49;10.65;;;9.65;;
64560;SDS011;50960;46.838;16.838;2023-11-19T01:04:16;10.13;;;9.23;;
64560;SDS011;50960;46.838;16.838;2023-11-19T01:06:43;9.95;;;9.15;;
64560;SDS011;50960;46.838;16.838;2023-11-19T01:09:09;10.60;;;9.70;;
64560;SDS011;50960;46.838;16.838;2023-11-19T01:11:35;10.02;;;9.13;;
64560;SDS011;50960;46.838;16.838;2023-11-19T01:14:02;9.95;;;9.00;;
64560;SDS011;50960;46.838;16.838;2023-11-19T01:16:28;9.40;;;8.57;;
64560;SDS011;50960;46.838;16.838;2023-11-19T01:18:55;9.98;;;9.07;;
64560;SDS011;50960;46.838;16.838;2023-11-19T01:21:22;9.80;;;8.95;;
64560;SDS011;50960;46.838;16.838;2023-11-19T01:23:48;9.50;;;8.65;;
64560;SDS011;50960;46.838;16.838;2023-11-19T01:26:14;10.02;;;8.65;;
64560;SDS011;50960;46.838;16.838;2023-11-19T01:28:40;9.77;;;8.88;;
64560;SDS011;50960;46.838;16.838;2023-11-19T01:31:14;9.45;;;8.55;;
64560;SDS011;50960;46.838;16.838;2023-11-19T01:33:41;8.98;;;8.20;;
64560;SDS011;50960;46.838;16.838;2023-11-19T01:36:07;9.35;;;8.45;;
64560;SDS011;50960;46.838;16.838;2023-11-19T01:38:34;9.52;;;8.52;;
64560;SDS011;50960;46.838;16.838;2023-11-19T01:41:02;8.25;;;7.55;;
64560;SDS011;50960;46.838;16.838;2023-11-19T01:43:35;8.20;;;7.50;;
64560;SDS011;50960;46.838;16.838;2023-11-19T01:46:02;8.00;;;7.40;;
64560;SDS011;50960;46.838;16.838;2023-11-19T01:48:31;8.90;;;8.10;;
64560;SDS011;50960;46.838;16.838;2023-11-19T01:50:58;8.38;;;7.50;;
64560;SDS011;50960;46.838;16.838;2023-11-19T01:53:25;8.15;;;7.45;;
64560;SDS011;50960;46.838;16.838;2023-11-19T01:55:52;8.63;;;7.63;;
64560;SDS011;50960;46.838;16.838;2023-11-19T01:58:19;7.85;;;7.03;;
64560;SDS011;50960;46.838;16.838;2023-11-19T02:00:45;8.00;;;7.30;;
64560;SDS011;50960;46.838;16.838;2023-11-19T02:03:12;8.48;;;7.78;;
64560;SDS011;50960;46.838;16.838;2023-11-19T02:05:39;8.13;;;7.43;;
64560;SDS011;50960;46.838;16.838;2023-11-19T02:08:06;7.78;;;7.18;;
64560;SDS011;50960;46.838;16.838;2023-11-19T02:10:33;7.55;;;6.95;;
64560;SDS011;50960;46.838;16.838;2023-11-19T02:13:00;7.18;;;6.57;;
64560;SDS011;50960;46.838;16.838;2023-11-19T02:15:27;8.40;;;7.60;;
64560;SDS011;50960;46.838;16.838;2023-11-19T02:17:53;7.53;;;6.93;;
64560;SDS011;50960;46.838;16.838;2023-11-19T02:20:20;7.40;;;6.80;;
64560;SDS011;50960;46.838;16.838;2023-11-19T02:22:46;7.38;;;6.78;;
64560;SDS011;50960;46.838;16.838;2023-11-19T02:25:17;7.30;;;6.70;;
64560;SDS011;50960;46.838;16.838;2023-11-19T02:27:51;6.95;;;6.38;;
64560;SDS011;50960;46.838;16.838;2023-11-19T02:30:21;7.35;;;6.78;;
64560;SDS011;50960;46.838;16.838;2023-11-19T02:32:55;6.97;;;6.38;;
64560;SDS011;50960;46.838;16.838;2023-11-19T02:35:27;7.22;;;6.63;;
64560;SDS011;50960;46.838;16.838;2023-11-19T02:37:57;7.47;;;6.78;;
64560;SDS011;50960;46.838;16.838;2023-11-19T02:40:29;7.15;;;6.47;;
64560;SDS011;50960;46.838;16.838;2023-11-19T02:42:55;7.13;;;6.53;;
64560;SDS011;50960;46.838;16.838;2023-11-19T02:45:22;7.07;;;6.50;;
64560;SDS011;50960;46.838;16.838;2023-11-19T02:47:49;7.00;;;6.40;;
64560;SDS011;50960;46.838;16.838;2023-11-19T02:50:16;6.88;;;6.28;;
64560;SDS011;50960;46.838;16.838;2023-11-19T02:52:51;6.60;;;6.00;;
64560;SDS011;50960;46.838;16.838;2023-11-19T02:55:19;6.65;;;6.15;;
64560;SDS011;50960;46.838;16.838;2023-11-19T02:57:45;6.50;;;5.95;;
64560;SDS011;50960;46.838;16.838;2023-11-19T03:02:41;7.18;;;6.57;;
64560;SDS011;50960;46.838;16.838;2023-11-19T03:05:19;6.43;;;5.82;;
64560;SDS011;50960;46.838;16.838;2023-11-19T03:07:45;6.45;;;5.85;;
64560;SDS011;50960;46.838;16.838;2023-11-19T03:10:12;6.75;;;6.07;;
64560;SDS011;50960;46.838;16.838;2023-11-19T03:12:44;6.65;;;6.13;;
64560;SDS011;50960;46.838;16.838;2023-11-19T03:15:11;6.93;;;6.30;;
64560;SDS011;50960;46.838;16.838;2023-11-19T03:17:41;6.97;;;6.35;;
64560;SDS011;50960;46.838;16.838;2023-11-19T03:20:11;6.57;;;6.05;;
64560;SDS011;50960;46.838;16.838;2023-11-19T03:22:42;6.85;;;6.25;;
64560;SDS011;50960;46.838;16.838;2023-11-19T03:25:09;6.63;;;6.03;;
64560;SDS011;50960;46.838;16.838;2023-11-19T03:27:36;6.90;;;6.38;;
64560;SDS011;50960;46.838;16.838;2023-11-19T03:30:07;7.07;;;6.30;;
64560;SDS011;50960;46.838;16.838;2023-11-19T03:32:37;7.68;;;5.85;;
64560;SDS011;50960;46.838;16.838;2023-11-19T03:35:04;6.05;;;5.55;;
64560;SDS011;50960;46.838;16.838;2023-11-19T03:37:34;6.50;;;5.97;;
64560;SDS011;50960;46.838;16.838;2023-11-19T03:40:02;6.32;;;5.72;;
64560;SDS011;50960;46.838;16.838;2023-11-19T03:42:28;6.00;;;5.50;;
64560;SDS011;50960;46.838;16.838;2023-11-19T03:44:56;5.93;;;5.40;;
64560;SDS011;50960;46.838;16.838;2023-11-19T03:47:22;6.22;;;5.72;;
64560;SDS011;50960;46.838;16.838;2023-11-19T03:49:49;6.20;;;5.70;;
64560;SDS011;50960;46.838;16.838;2023-11-19T03:52:16;6.10;;;5.60;;
64560;SDS011;50960;46.838;16.838;2023-11-19T03:54:43;6.75;;;6.15;;
64560;SDS011;50960;46.838;16.838;2023-11-19T03:57:11;6.80;;;6.20;;
64560;SDS011;50960;46.838;16.838;2023-11-19T03:59:38;6.40;;;5.80;;
64560;SDS011;50960;46.838;16.838;2023-11-19T04:02:05;6.28;;;5.78;;
64560;SDS011;50960;46.838;16.838;2023-11-19T04:04:32;6.55;;;5.95;;
64560;SDS011;50960;46.838;16.838;2023-11-19T04:06:58;6.10;;;5.60;;
64560;SDS011;50960;46.838;16.838;2023-11-19T04:09:26;5.45;;;4.95;;
64560;SDS011;50960;46.838;16.838;2023-11-19T04:11:52;6.07;;;5.57;;
64560;SDS011;50960;46.838;16.838;2023-11-19T04:14:19;5.28;;;4.78;;
64560;SDS011;50960;46.838;16.838;2023-11-19T04:16:46;5.05;;;4.57;;
64560;SDS011;50960;46.838;16.838;2023-11-19T04:19:13;5.30;;;4.90;;
64560;SDS011;50960;46.838;16.838;2023-11-19T04:21:40;5.75;;;5.25;;
64560;SDS011;50960;46.838;16.838;2023-11-19T04:24:08;5.63;;;5.20;;
64560;SDS011;50960;46.838;16.838;2023-11-19T04:26:44;5.75;;;5.25;;
64560;SDS011;50960;46.838;16.838;2023-11-19T04:29:15;5.22;;;4.80;;
64560;SDS011;50960;46.838;16.838;2023-11-19T04:31:43;5.30;;;4.90;;
64560;SDS011;50960;46.838;16.838;2023-11-19T04:34:12;4.97;;;4.50;;
64560;SDS011;50960;46.838;16.838;2023-11-19T04:36:38;4.78;;;4.38;;
64560;SDS011;50960;46.838;16.838;2023-11-19T04:39:05;4.72;;;4.32;;
64560;SDS011;50960;46.838;16.838;2023-11-19T04:41:46;4.93;;;4.45;;
64560;SDS011;50960;46.838;16.838;2023-11-19T04:44:22;4.40;;;4.00;;
64560;SDS011;50960;46.838;16.838;2023-11-19T04:46:48;4.97;;;4.55;;
64560;SDS011;50960;46.838;16.838;2023-11-19T04:49:15;4.70;;;4.40;;
64560;SDS011;50960;46.838;16.838;2023-11-19T04:51:43;4.70;;;4.30;;
64560;SDS011;50960;46.838;16.838;2023-11-19T04:54:11;4.72;;;4.40;;
64560;SDS011;50960;46.838;16.838;2023-11-19T04:56:37;4.57;;;4.28;;
64560;SDS011;50960;46.838;16.838;2023-11-19T04:59:04;5.03;;;4.63;;
64560;SDS011;50960;46.838;16.838;2023-11-19T05:01:34;5.32;;;4.88;;
64560;SDS011;50960;46.838;16.838;2023-11-19T05:04:01;5.40;;;5.00;;
64560;SDS011;50960;46.838;16.838;2023-11-19T05:06:28;5.00;;;4.60;;
64560;SDS011;50960;46.838;16.838;2023-11-19T05:08:55;5.00;;;4.60;;
64560;SDS011;50960;46.838;16.838;2023-11-19T05:11:30;4.70;;;4.30;;
64560;SDS011;50960;46.838;16.838;2023-11-19T05:13:58;4.60;;;4.20;;
64560;SDS011;50960;46.838;16.838;2023-11-19T05:16:24;4.90;;;4.50;;
64560;SDS011;50960;46.838;16.838;2023-11-19T05:18:50;4.55;;;4.25;;
64560;SDS011;50960;46.838;16.838;2023-11-19T05:21:17;4.38;;;3.97;;
64560;SDS011;50960;46.838;16.838;2023-11-19T05:23:43;4.78;;;4.38;;
64560;SDS011;50960;46.838;16.838;2023-11-19T05:26:09;5.35;;;4.95;;
64560;SDS011;50960;46.838;16.838;2023-11-19T05:28:42;5.07;;;4.20;;
64560;SDS011;50960;46.838;16.838;2023-11-19T05:31:09;4.95;;;4.50;;
64560;SDS011;50960;46.838;16.838;2023-11-19T05:33:35;4.32;;;4.03;;
64560;SDS011;50960;46.838;16.838;2023-11-19T05:36:02;4.55;;;4.25;;
64560;SDS011;50960;46.838;16.838;2023-11-19T05:41:56;4.50;;;4.10;;
64560;SDS011;50960;46.838;16.838;2023-11-19T05:44:22;4.60;;;4.30;;
64560;SDS011;50960;46.838;16.838;2023-11-19T05:46:48;4.50;;;4.20;;
64560;SDS011;50960;46.838;16.838;2023-11-19T05:49:14;4.60;;;4.30;;
64560;SDS011;50960;46.838;16.838;2023-11-19T05:51:41;4.63;;;4.22;;
64560;SDS011;50960;46.838;16.838;2023-11-19T05:54:08;6.55;;;4.50;;
64560;SDS011;50960;46.838;16.838;2023-11-19T05:56:36;5.63;;;5.13;;
64560;SDS011;50960;46.838;16.838;2023-11-19T05:59:02;5.80;;;5.30;;
64560;SDS011;50960;46.838;16.838;2023-11-19T06:01:35;6.88;;;5.55;;
64560;SDS011;50960;46.838;16.838;2023-11-19T06:04:02;6.70;;;5.80;;
64560;SDS011;50960;46.838;16.838;2023-11-19T06:06:28;6.30;;;5.80;;
64560;SDS011;50960;46.838;16.838;2023-11-19T06:08:54;5.38;;;4.97;;
64560;SDS011;50960;46.838;16.838;2023-11-19T06:11:20;5.32;;;4.93;;
64560;SDS011;50960;46.838;16.838;2023-11-19T06:13:47;5.20;;;4.80;;
64560;SDS011;50960;46.838;16.838;2023-11-19T06:16:13;5.28;;;4.78;;
64560;SDS011;50960;46.838;16.838;2023-11-19T06:18:40;4.70;;;4.40;;
64560;SDS011;50960;46.838;16.838;2023-11-19T06:21:07;5.70;;;5.20;;
64560;SDS011;50960;46.838;16.838;2023-11-19T06:23:33;5.32;;;4.82;;
64560;SDS011;50960;46.838;16.838;2023-11-19T06:25:59;4.82;;;4.43;;
64560;SDS011;50960;46.838;16.838;2023-11-19T06:28:25;5.00;;;4.60;;
64560;SDS011;50960;46.838;16.838;2023-11-19T06:30:52;4.70;;;4.40;;
64560;SDS011;50960;46.838;16.838;2023-11-19T06:33:18;4.90;;;4.50;;
64560;SDS011;50960;46.838;16.838;2023-11-19T06:35:44;4.82;;;4.45;;
64560;SDS011;50960;46.838;16.838;2023-11-19T06:38:11;4.85;;;4.45;;
64560;SDS011;50960;46.838;16.838;2023-11-19T06:40:37;5.78;;;5.28;;
64560;SDS011;50960;46.838;16.838;2023-11-19T06:43:03;5.03;;;4.53;;
64560;SDS011;50960;46.838;16.838;2023-11-19T06:45:30;4.72;;;4.35;;
64560;SDS011;50960;46.838;16.838;2023-11-19T06:47:56;6.13;;;5.63;;
64560;SDS011;50960;46.838;16.838;2023-11-19T06:50:23;6.65;;;6.05;;
64560;SDS011;50960;46.838;16.838;2023-11-19T06:52:50;6.72;;;6.07;;
64560;SDS011;50960;46.838;16.838;2023-11-19T06:55:16;6.10;;;5.60;;
64560;SDS011;50960;46.838;16.838;2023-11-19T07:00:29;5.63;;;5.13;;
64560;SDS011;50960;46.838;16.838;2023-11-19T07:02:58;6.35;;;5.80;;
64560;SDS011;50960;46.838;16.838;2023-11-19T07:05:25;6.00;;;5.50;;
64560;SDS011;50960;46.838;16.838;2023-11-19T07:07:51;6.10;;;5.60;;
64560;SDS011;50960;46.838;16.838;2023-11-19T07:10:18;5.85;;;5.35;;
64560;SDS011;50960;46.838;16.838;2023-11-19T07:12:44;5.72;;;5.22;;
64560;SDS011;50960;46.838;16.838;2023-11-19T07:15:10;5.88;;;5.38;;
64560;SDS011;50960;46.838;16.838;2023-11-19T07:17:38;5.80;;;5.30;;
64560;SDS011;50960;46.838;16.838;2023-11-19T07:20:05;6.50;;;5.90;;
64560;SDS011;50960;46.838;16.838;2023-11-19T07:22:32;6.47;;;5.97;;
64560;SDS011;50960;46.838;16.838;2023-11-19T07:27:44;6.38;;;5.28;;
64560;SDS011;50960;46.838;16.838;2023-11-19T07:30:12;5.60;;;5.10;;
64560;SDS011;50960;46.838;16.838;2023-11-19T07:32:39;5.63;;;5.13;;
64560;SDS011;50960;46.838;16.838;2023-11-19T07:35:05;6.00;;;5.50;;
64560;SDS011;50960;46.838;16.838;2023-11-19T07:37:32;5.93;;;5.43;;
64560;SDS011;50960;46.838;16.838;2023-11-19T07:39:59;6.63;;;6.00;;
64560;SDS011;50960;46.838;16.838;2023-11-19T07:42:26;6.60;;;6.00;;
64560;SDS011;50960;46.838;16.838;2023-11-19T07:44:53;6.38;;;5.75;;
64560;SDS011;50960;46.838;16.838;2023-11-19T07:47:20;6.00;;;5.47;;
64560;SDS011;50960;46.838;16.838;2023-11-19T07:49:50;6.57;;;6.05;;
64560;SDS011;50960;46.838;16.838;2023-11-19T07:52:16;8.68;;;7.78;;
64560;SDS011;50960;46.838;16.838;2023-11-19T07:54:42;12.43;;;8.90;;
64560;SDS011;50960;46.838;16.838;2023-11-19T07:57:09;10.93;;;8.43;;
64560;SDS011;50960;46.838;16.838;2023-11-19T07:59:36;8.40;;;7.60;;
64560;SDS011;50960;46.838;16.838;2023-11-19T08:02:03;9.90;;;7.90;;
64560;SDS011;50960;46.838;16.838;2023-11-19T08:04:30;7.88;;;6.78;;
64560;SDS011;50960;46.838;16.838;2023-11-19T08:06:56;6.70;;;6.10;;
64560;SDS011;50960;46.838;16.838;2023-11-19T08:09:23;7.10;;;6.50;;
64560;SDS011;50960;46.838;16.838;2023-11-19T08:11:49;6.80;;;6.20;;
64560;SDS011;50960;46.838;16.838;2023-11-19T08:14:16;8.30;;;7.40;;
64560;SDS011;50960;46.838;16.838;2023-11-19T08:16:42;8.38;;;7.50;;
64560;SDS011;50960;46.838;16.838;2023-11-19T08:19:09;8.65;;;7.85;;
64560;SDS011;50960;46.838;16.838;2023-11-19T08:21:35;8.23;;;7.43;;
64560;SDS011;50960;46.838;16.838;2023-11-19T08:24:01;8.73;;;7.00;;
64560;SDS011;50960;46.838;16.838;2023-11-19T08:26:29;7.78;;;7.03;;
64560;SDS011;50960;46.838;16.838;2023-11-19T08:28:55;7.07;;;6.35;;
64560;SDS011;50960;46.838;16.838;2023-11-19T08:31:24;6.78;;;6.18;;
64560;SDS011;50960;46.838;16.838;2023-11-19T08:33:51;7.00;;;6.40;;
64560;SDS011;50960;46.838;16.838;2023-11-19T08:36:18;7.80;;;7.00;;
64560;SDS011;50960;46.838;16.838;2023-11-19T08:38:45;7.13;;;6.43;;
64560;SDS011;50960;46.838;16.838;2023-11-19T08:41:12;7.00;;;6.25;;
64560;SDS011;50960;46.838;16.838;2023-11-19T08:43:38;8.43;;;6.28;;
64560;SDS011;50960;46.838;16.838;2023-11-19T08:46:09;7.15;;;6.45;;
64560;SDS011;50960;46.838;16.838;2023-11-19T08:48:36;8.48;;;7.68;;
64560;SDS011;50960;46.838;16.838;2023-11-19T08:51:03;10.65;;;9.50;;
64560;SDS011;50960;46.838;16.838;2023-11-19T08:53:30;10.32;;;9.30;;
64560;SDS011;50960;46.838;16.838;2023-11-19T08:55:57;8.95;;;8.13;;
64560;SDS011;50960;46.838;16.838;2023-11-19T08:58:23;9.75;;;8.55;;
64560;SDS011;50960;46.838;16.838;2023-11-19T09:00:50;7.65;;;6.82;;
64560;SDS011;50960;46.838;16.838;2023-11-19T09:03:16;9.48;;;7.22;;
64560;SDS011;50960;46.838;16.838;2023-11-19T09:05:42;6.43;;;5.82;;
64560;SDS011;50960;46.838;16.838;2023-11-19T09:08:09;5.05;;;4.65;;
64560;SDS011;50960;46.838;16.838;2023-11-19T09:10:37;4.60;;;4.20;;
64560;SDS011;50960;46.838;16.838;2023-11-19T09:13:04;3.97;;;3.67;;
64560;SDS011;50960;46.838;16.838;2023-11-19T09:15:30;4.07;;;3.78;;
64560;SDS011;50960;46.838;16.838;2023-11-19T09:17:57;4.55;;;4.13;;
64560;SDS011;50960;46.838;16.838;2023-11-19T09:20:23;4.60;;;4.20;;
64560;SDS011;50960;46.838;16.838;2023-11-19T09:22:49;4.47;;;3.80;;
64560;SDS011;50960;46.838;16.838;2023-11-19T09:25:16;4.35;;;3.97;;
64560;SDS011;50960;46.838;16.838;2023-11-19T09:27:43;4.20;;;3.80;;
64560;SDS011;50960;46.838;16.838;2023-11-19T09:30:11;4.10;;;3.80;;
64560;SDS011;50960;46.838;16.838;2023-11-19T09:32:38;4.50;;;4.10;;
64560;SDS011;50960;46.838;16.838;2023-11-19T09:35:06;6.15;;;5.57;;
64560;SDS011;50960;46.838;16.838;2023-11-19T09:37:32;4.38;;;3.92;;
64560;SDS011;50960;46.838;16.838;2023-11-19T09:39:59;3.85;;;3.55;;
64560;SDS011;50960;46.838;16.838;2023-11-19T09:42:26;4.50;;;4.10;;
64560;SDS011;50960;46.838;16.838;2023-11-19T09:44:53;4.20;;;3.90;;
64560;SDS011;50960;46.838;16.838;2023-11-19T09:47:22;4.80;;;4.50;;
64560;SDS011;50960;46.838;16.838;2023-11-19T09:49:50;4.68;;;4.28;;
64560;SDS011;50960;46.838;16.838;2023-11-19T09:52:17;4.93;;;4.43;;
64560;SDS011;50960;46.838;16.838;2023-11-19T09:54:44;5.13;;;4.55;;
64560;SDS011;50960;46.838;16.838;2023-11-19T09:57:10;4.25;;;3.85;;
64560;SDS011;50960;46.838;16.838;2023-11-19T09:59:41;4.30;;;3.92;;
64560;SDS011;50960;46.838;16.838;2023-11-19T10:02:08;5.28;;;4.78;;
64560;SDS011;50960;46.838;16.838;2023-11-19T10:04:35;5.03;;;4.43;;
64560;SDS011;50960;46.838;16.838;2023-11-19T10:07:02;5.50;;;5.00;;
64560;SDS011;50960;46.838;16.838;2023-11-19T10:09:32;4.60;;;4.00;;
64560;SDS011;50960;46.838;16.838;2023-11-19T10:11:58;4.60;;;4.20;;
64560;SDS011;50960;46.838;16.838;2023-11-19T10:14:25;4.10;;;3.80;;
64560;SDS011;50960;46.838;16.838;2023-11-19T10:16:54;4.15;;;3.85;;
64560;SDS011;50960;46.838;16.838;2023-11-19T10:19:21;4.05;;;3.75;;
64560;SDS011;50960;46.838;16.838;2023-11-19T10:21:47;4.40;;;4.10;;
64560;SDS011;50960;46.838;16.838;2023-11-19T10:24:13;4.85;;;4.15;;
64560;SDS011;50960;46.838;16.838;2023-11-19T10:26:40;4.38;;;3.97;;
64560;SDS011;50960;46.838;16.838;2023-11-19T10:29:09;4.03;;;3.72;;
64560;SDS011;50960;46.838;16.838;2023-11-19T10:31:39;4.63;;;4.20;;
64560;SDS011;50960;46.838;16.838;2023-11-19T10:34:11;4.20;;;3.90;;
64560;SDS011;50960;46.838;16.838;2023-11-19T10:36:51;4.25;;;3.95;;
64560;SDS011;50960;46.838;16.838;2023-11-19T10:39:18;4.63;;;4.30;;
64560;SDS011;50960;46.838;16.838;2023-11-19T10:41:46;4.25;;;3.95;;
64560;SDS011;50960;46.838;16.838;2023-11-19T10:44:12;4.85;;;4.45;;
64560;SDS011;50960;46.838;16.838;2023-11-19T10:46:59;4.75;;;4.45;;
64560;SDS011;50960;46.838;16.838;2023-11-19T10:49:25;4.90;;;4.45;;
64560;SDS011;50960;46.838;16.838;2023-11-19T10:51:53;4.82;;;4.40;;
64560;SDS011;50960;46.838;16.838;2023-11-19T10:54:22;5.38;;;4.88;;
64560;SDS011;50960;46.838;16.838;2023-11-19T10:56:55;5.35;;;4.88;;
64560;SDS011;50960;46.838;16.838;2023-11-19T10:59:28;5.38;;;4.88;;
64560;SDS011;50960;46.838;16.838;2023-11-19T11:01:56;4.88;;;4.47;;
64560;SDS011;50960;46.838;16.838;2023-11-19T11:04:24;5.20;;;4.80;;
64560;SDS011;50960;46.838;16.838;2023-11-19T11:06:56;5.45;;;4.95;;
64560;SDS011;50960;46.838;16.838;2023-11-19T11:09:26;5.30;;;4.85;;
64560;SDS011;50960;46.838;16.838;2023-11-19T11:11:56;5.28;;;4.88;;
64560;SDS011;50960;46.838;16.838;2023-11-19T11:14:25;5.28;;;4.80;;
64560;SDS011;50960;46.838;16.838;2023-11-19T11:16:53;5.47;;;4.88;;
64560;SDS011;50960;46.838;16.838;2023-11-19T11:19:22;4.97;;;4.57;;
64560;SDS011;50960;46.838;16.838;2023-11-19T11:21:50;5.20;;;4.80;;
64560;SDS011;50960;46.838;16.838;2023-11-19T11:33:06;5.72;;;5.25;;
64560;SDS011;50960;46.838;16.838;2023-11-19T11:35:59;5.35;;;4.90;;
64560;SDS011;50960;46.838;16.838;2023-11-19T11:38:28;5.32;;;4.82;;
64560;SDS011;50960;46.838;16.838;2023-11-19T11:41:14;5.85;;;5.30;;
64560;SDS011;50960;46.838;16.838;2023-11-19T11:43:49;6.38;;;5.78;;
64560;SDS011;50960;46.838;16.838;2023-11-19T11:49:07;5.65;;;5.25;;
64560;SDS011;50960;46.838;16.838;2023-11-19T11:54:09;6.50;;;5.90;;
64560;SDS011;50960;46.838;16.838;2023-11-19T11:57:04;6.00;;;5.50;;
64560;SDS011;50960;46.838;16.838;2023-11-19T12:02:08;5.80;;;5.18;;
64560;SDS011;50960;46.838;16.838;2023-11-19T12:04:36;6.68;;;5.82;;
64560;SDS011;50960;46.838;16.838;2023-11-19T12:07:06;6.32;;;5.72;;
64560;SDS011;50960;46.838;16.838;2023-11-19T12:09:40;6.20;;;5.70;;
64560;SDS011;50960;46.838;16.838;2023-11-19T12:12:11;7.00;;;5.82;;
64560;SDS011;50960;46.838;16.838;2023-11-19T12:20:30;6.65;;;6.05;;
64560;SDS011;50960;46.838;16.838;2023-11-19T12:23:04;6.70;;;6.10;;
64560;SDS011;50960;46.838;16.838;2023-11-19T12:25:34;6.47;;;5.87;;
64560;SDS011;50960;46.838;16.838;2023-11-19T12:28:01;6.50;;;5.90;;
64560;SDS011;50960;46.838;16.838;2023-11-19T12:30:30;6.95;;;6.20;;
64560;SDS011;50960;46.838;16.838;2023-11-19T12:32:56;6.70;;;6.18;;
64560;SDS011;50960;46.838;16.838;2023-11-19T12:35:22;6.72;;;6.07;;
64560;SDS011;50960;46.838;16.838;2023-11-19T12:37:51;7.28;;;6.57;;
64560;SDS011;50960;46.838;16.838;2023-11-19T12:40:24;6.68;;;6.07;;
64560;SDS011;50960;46.838;16.838;2023-11-19T12:42:51;6.72;;;6.13;;
64560;SDS011;50960;46.838;16.838;2023-11-19T12:45:21;8.45;;;6.13;;
64560;SDS011;50960;46.838;16.838;2023-11-19T12:47:49;6.50;;;6.00;;
64560;SDS011;50960;46.838;16.838;2023-11-19T12:50:19;6.93;;;6.22;;
64560;SDS011;50960;46.838;16.838;2023-11-19T12:52:55;7.40;;;6.70;;
64560;SDS011;50960;46.838;16.838;2023-11-19T12:55:29;7.00;;;6.32;;
64560;SDS011;50960;46.838;16.838;2023-11-19T12:57:58;7.97;;;6.85;;
64560;SDS011;50960;46.838;16.838;2023-11-19T13:00:25;7.85;;;7.03;;
64560;SDS011;50960;46.838;16.838;2023-11-19T13:02:54;6.63;;;6.13;;
64560;SDS011;50960;46.838;16.838;2023-11-19T13:05:26;7.60;;;6.90;;
64560;SDS011;50960;46.838;16.838;2023-11-19T13:08:06;6.70;;;6.10;;
64560;SDS011;50960;46.838;16.838;2023-11-19T13:10:34;7.13;;;6.43;;
64560;SDS011;50960;46.838;16.838;2023-11-19T13:13:19;7.20;;;6.13;;
64560;SDS011;50960;46.838;16.838;2023-11-19T13:15:45;6.57;;;5.97;;
64560;SDS011;50960;46.838;16.838;2023-11-19T13:18:12;6.70;;;6.10;;
64560;SDS011;50960;46.838;16.838;2023-11-19T13:20:44;6.65;;;6.10;;
64560;SDS011;50960;46.838;16.838;2023-11-19T13:23:10;6.80;;;6.20;;
64560;SDS011;50960;46.838;16.838;2023-11-19T13:25:38;7.10;;;6.43;;
64560;SDS011;50960;46.838;16.838;2023-11-19T13:28:10;7.30;;;6.60;;
64560;SDS011;50960;46.838;16.838;2023-11-19T13:30:37;7.25;;;6.55;;
64560;SDS011;50960;46.838;16.838;2023-11-19T13:33:03;7.43;;;6.55;;
64560;SDS011;50960;46.838;16.838;2023-11-19T13:35:30;7.43;;;6.72;;
64560;SDS011;50960;46.838;16.838;2023-11-19T13:37:56;7.50;;;6.80;;
64560;SDS011;50960;46.838;16.838;2023-11-19T13:40:22;8.63;;;7.82;;
64560;SDS011;50960;46.838;16.838;2023-11-19T13:42:50;7.90;;;7.10;;
64560;SDS011;50960;46.838;16.838;2023-11-19T13:45:17;7.85;;;7.15;;
64560;SDS011;50960;46.838;16.838;2023-11-19T13:47:44;7.65;;;6.80;;
64560;SDS011;50960;46.838;16.838;2023-11-19T13:50:13;7.63;;;6.93;;
64560;SDS011;50960;46.838;16.838;2023-11-19T13:52:45;7.65;;;6.85;;
64560;SDS011;50960;46.838;16.838;2023-11-19T13:55:18;7.72;;;7.03;;
64560;SDS011;50960;46.838;16.838;2023-11-19T13:57:46;8.10;;;7.40;;
64560;SDS011;50960;46.838;16.838;2023-11-19T14:00:14;8.10;;;7.40;;
64560;SDS011;50960;46.838;16.838;2023-11-19T14:02:49;8.82;;;7.85;;
64560;SDS011;50960;46.838;16.838;2023-11-19T14:05:16;8.20;;;7.50;;
64560;SDS011;50960;46.838;16.838;2023-11-19T14:07:43;8.50;;;7.63;;
64560;SDS011;50960;46.838;16.838;2023-11-19T14:10:10;8.93;;;8.02;;
64560;SDS011;50960;46.838;16.838;2023-11-19T14:12:37;8.93;;;8.13;;
64560;SDS011;50960;46.838;16.838;2023-11-19T14:15:04;9.20;;;8.27;;
64560;SDS011;50960;46.838;16.838;2023-11-19T14:17:43;8.50;;;7.72;;
64560;SDS011;50960;46.838;16.838;2023-11-19T14:20:13;10.13;;;9.07;;
64560;SDS011;50960;46.838;16.838;2023-11-19T14:23:00;9.60;;;8.23;;
64560;SDS011;50960;46.838;16.838;2023-11-19T14:25:26;11.40;;;8.35;;
64560;SDS011;50960;46.838;16.838;2023-11-19T14:27:52;10.38;;;8.52;;
64560;SDS011;50960;46.838;16.838;2023-11-19T14:30:19;8.80;;;7.78;;
64560;SDS011;50960;46.838;16.838;2023-11-19T14:32:45;9.13;;;8.20;;
64560;SDS011;50960;46.838;16.838;2023-11-19T14:35:14;8.60;;;7.40;;
64560;SDS011;50960;46.838;16.838;2023-11-19T14:37:40;9.05;;;8.10;;
64560;SDS011;50960;46.838;16.838;2023-11-19T14:40:06;10.45;;;8.65;;
64560;SDS011;50960;46.838;16.838;2023-11-19T14:42:36;8.98;;;8.18;;
64560;SDS011;50960;46.838;16.838;2023-11-19T14:45:04;11.15;;;9.20;;
64560;SDS011;50960;46.838;16.838;2023-11-19T14:47:33;9.63;;;8.70;;
64560;SDS011;50960;46.838;16.838;2023-11-19T14:50:03;10.27;;;8.52;;
64560;SDS011;50960;46.838;16.838;2023-11-19T14:52:32;8.95;;;8.15;;
64560;SDS011;50960;46.838;16.838;2023-11-19T14:55:02;9.68;;;8.68;;
64560;SDS011;50960;46.838;16.838;2023-11-19T14:57:30;12.10;;;9.57;;
64560;SDS011;50960;46.838;16.838;2023-11-19T14:59:57;10.60;;;9.50;;
64560;SDS011;50960;46.838;16.838;2023-11-19T15:02:24;10.30;;;9.20;;
64560;SDS011;50960;46.838;16.838;2023-11-19T15:04:50;12.35;;;10.82;;
64560;SDS011;50960;46.838;16.838;2023-11-19T15:07:17;11.52;;;10.38;;
64560;SDS011;50960;46.838;16.838;2023-11-19T15:09:43;10.93;;;9.75;;
64560;SDS011;50960;46.838;16.838;2023-11-19T15:12:11;11.43;;;10.07;;